sensor_id;sensor_type;location;lat;lon;timestamp;P1;durP1;ratioP1;P2;durP2;ratioP2
78312;SDS011;67568;47.438;21.408;2023-07-31T00:12:09;6.57;;;2.90;;
78312;SDS011;67568;47.438;21.408;2023-07-31T00:14:36;5.95;;;2.78;;
78312;SDS011;67568;47.438;21.408;2023-07-31T00:17:05;6.15;;;2.50;;
78312;SDS011;67568;47.438;21.408;2023-07-31T00:19:32;6.33;;;2.60;;
78312;SDS011;67568;47.438;21.408;2023-07-31T00:21:59;8.00;;;3.03;;
78312;SDS011;67568;47.438;21.408;2023-07-31T00:24:28;6.13;;;3.03;;
78312;SDS011;67568;47.438;21.408;2023-07-31T00:26:58;7.00;;;3.10;;
78312;SDS011;67568;47.438;21.408;2023-07-31T00:29:25;7.38;;;2.90;;
78312;SDS011;67568;47.438;21.408;2023-07-31T00:31:53;6.67;;;3.00;;
78312;SDS011;67568;47.438;21.408;2023-07-31T00:34:20;6.10;;;2.92;;
78312;SDS011;67568;47.438;21.408;2023-07-31T00:36:49;6.55;;;3.17;;
78312;SDS011;67568;47.438;21.408;2023-07-31T00:39:15;5.90;;;2.80;;
78312;SDS011;67568;47.438;21.408;2023-07-31T00:41:42;7.78;;;3.10;;
78312;SDS011;67568;47.438;21.408;2023-07-31T00:44:09;7.97;;;2.77;;
78312;SDS011;67568;47.438;21.408;2023-07-31T00:46:36;7.30;;;3.10;;
78312;SDS011;67568;47.438;21.408;2023-07-31T00:49:03;8.40;;;3.58;;
78312;SDS011;67568;47.438;21.408;2023-07-31T00:51:32;8.02;;;3.08;;
78312;SDS011;67568;47.438;21.408;2023-07-31T00:53:59;5.90;;;2.65;;
78312;SDS011;67568;47.438;21.408;2023-07-31T00:56:27;8.70;;;3.17;;
78312;SDS011;67568;47.438;21.408;2023-07-31T00:58:54;7.90;;;3.28;;
78312;SDS011;67568;47.438;21.408;2023-07-31T01:01:25;7.65;;;3.60;;
78312;SDS011;67568;47.438;21.408;2023-07-31T01:03:52;7.32;;;3.15;;
78312;SDS011;67568;47.438;21.408;2023-07-31T01:06:40;6.10;;;3.10;;
78312;SDS011;67568;47.438;21.408;2023-07-31T01:09:29;7.83;;;3.50;;
78312;SDS011;67568;47.438;21.408;2023-07-31T01:12:07;7.22;;;3.15;;
78312;SDS011;67568;47.438;21.408;2023-07-31T01:14:39;9.57;;;3.35;;
78312;SDS011;67568;47.438;21.408;2023-07-31T01:17:08;6.35;;;3.08;;
78312;SDS011;67568;47.438;21.408;2023-07-31T01:19:35;6.80;;;3.17;;
78312;SDS011;67568;47.438;21.408;2023-07-31T01:22:29;6.27;;;3.10;;
78312;SDS011;67568;47.438;21.408;2023-07-31T01:27:59;8.20;;;2.80;;
78312;SDS011;67568;47.438;21.408;2023-07-31T01:30:32;6.88;;;3.17;;
78312;SDS011;67568;47.438;21.408;2023-07-31T01:33:01;7.10;;;3.30;;
78312;SDS011;67568;47.438;21.408;2023-07-31T01:35:33;8.70;;;3.80;;
78312;SDS011;67568;47.438;21.408;2023-07-31T01:38:01;7.22;;;3.58;;
78312;SDS011;67568;47.438;21.408;2023-07-31T01:40:27;7.45;;;3.53;;
78312;SDS011;67568;47.438;21.408;2023-07-31T01:42:57;8.50;;;3.75;;
78312;SDS011;67568;47.438;21.408;2023-07-31T01:45:24;7.13;;;3.80;;
78312;SDS011;67568;47.438;21.408;2023-07-31T01:47:51;6.70;;;3.50;;
78312;SDS011;67568;47.438;21.408;2023-07-31T01:50:17;7.50;;;3.28;;
78312;SDS011;67568;47.438;21.408;2023-07-31T01:52:44;7.95;;;3.90;;
78312;SDS011;67568;47.438;21.408;2023-07-31T01:55:11;6.55;;;3.40;;
78312;SDS011;67568;47.438;21.408;2023-07-31T01:57:38;7.65;;;3.78;;
78312;SDS011;67568;47.438;21.408;2023-07-31T02:00:06;6.20;;;3.07;;
78312;SDS011;67568;47.438;21.408;2023-07-31T02:02:33;7.95;;;3.85;;
78312;SDS011;67568;47.438;21.408;2023-07-31T02:05:03;8.60;;;3.25;;
78312;SDS011;67568;47.438;21.408;2023-07-31T02:07:30;9.70;;;3.80;;
78312;SDS011;67568;47.438;21.408;2023-07-31T02:09:57;8.10;;;4.18;;
78312;SDS011;67568;47.438;21.408;2023-07-31T02:12:24;7.87;;;3.83;;
78312;SDS011;67568;47.438;21.408;2023-07-31T02:14:53;7.80;;;4.00;;
78312;SDS011;67568;47.438;21.408;2023-07-31T02:17:22;7.75;;;3.88;;
78312;SDS011;67568;47.438;21.408;2023-07-31T02:19:50;7.18;;;3.78;;
78312;SDS011;67568;47.438;21.408;2023-07-31T02:22:17;7.93;;;4.00;;
78312;SDS011;67568;47.438;21.408;2023-07-31T02:24:43;7.30;;;3.80;;
78312;SDS011;67568;47.438;21.408;2023-07-31T02:27:10;8.65;;;4.28;;
78312;SDS011;67568;47.438;21.408;2023-07-31T02:29:37;8.20;;;4.07;;
78312;SDS011;67568;47.438;21.408;2023-07-31T02:32:04;9.15;;;4.70;;
78312;SDS011;67568;47.438;21.408;2023-07-31T02:34:31;8.68;;;4.50;;
78312;SDS011;67568;47.438;21.408;2023-07-31T02:36:58;9.80;;;4.93;;
78312;SDS011;67568;47.438;21.408;2023-07-31T02:39:26;8.55;;;4.57;;
78312;SDS011;67568;47.438;21.408;2023-07-31T02:41:52;11.40;;;4.85;;
78312;SDS011;67568;47.438;21.408;2023-07-31T02:44:19;8.20;;;4.45;;
78312;SDS011;67568;47.438;21.408;2023-07-31T02:46:46;7.90;;;4.13;;
78312;SDS011;67568;47.438;21.408;2023-07-31T02:49:12;9.20;;;4.10;;
78312;SDS011;67568;47.438;21.408;2023-07-31T02:51:39;10.57;;;4.40;;
78312;SDS011;67568;47.438;21.408;2023-07-31T02:54:06;8.00;;;4.10;;
78312;SDS011;67568;47.438;21.408;2023-07-31T02:56:33;7.88;;;3.75;;
78312;SDS011;67568;47.438;21.408;2023-07-31T02:59:00;8.38;;;4.20;;
78312;SDS011;67568;47.438;21.408;2023-07-31T03:01:27;8.67;;;3.90;;
78312;SDS011;67568;47.438;21.408;2023-07-31T03:03:54;8.30;;;4.40;;
78312;SDS011;67568;47.438;21.408;2023-07-31T03:06:20;8.85;;;4.20;;
78312;SDS011;67568;47.438;21.408;2023-07-31T03:08:47;6.82;;;3.75;;
78312;SDS011;67568;47.438;21.408;2023-07-31T03:11:14;7.80;;;3.92;;
78312;SDS011;67568;47.438;21.408;2023-07-31T03:13:41;8.30;;;4.20;;
78312;SDS011;67568;47.438;21.408;2023-07-31T03:16:09;10.68;;;4.03;;
78312;SDS011;67568;47.438;21.408;2023-07-31T03:18:35;7.60;;;3.83;;
78312;SDS011;67568;47.438;21.408;2023-07-31T03:21:03;6.75;;;3.78;;
78312;SDS011;67568;47.438;21.408;2023-07-31T03:23:30;8.63;;;3.67;;
78312;SDS011;67568;47.438;21.408;2023-07-31T03:26:01;9.13;;;4.10;;
78312;SDS011;67568;47.438;21.408;2023-07-31T03:28:31;7.78;;;3.72;;
78312;SDS011;67568;47.438;21.408;2023-07-31T03:31:00;8.98;;;3.60;;
78312;SDS011;67568;47.438;21.408;2023-07-31T03:33:28;7.97;;;3.90;;
78312;SDS011;67568;47.438;21.408;2023-07-31T03:35:57;9.48;;;3.83;;
78312;SDS011;67568;47.438;21.408;2023-07-31T03:38:25;8.40;;;3.77;;
78312;SDS011;67568;47.438;21.408;2023-07-31T03:40:51;11.63;;;3.75;;
78312;SDS011;67568;47.438;21.408;2023-07-31T03:43:18;7.75;;;3.80;;
78312;SDS011;67568;47.438;21.408;2023-07-31T03:45:45;7.43;;;3.70;;
78312;SDS011;67568;47.438;21.408;2023-07-31T03:48:14;8.13;;;3.38;;
78312;SDS011;67568;47.438;21.408;2023-07-31T03:50:44;8.30;;;3.33;;
78312;SDS011;67568;47.438;21.408;2023-07-31T03:53:15;7.78;;;3.67;;
78312;SDS011;67568;47.438;21.408;2023-07-31T03:55:41;7.07;;;3.70;;
78312;SDS011;67568;47.438;21.408;2023-07-31T03:58:08;7.93;;;3.92;;
78312;SDS011;67568;47.438;21.408;2023-07-31T04:00:35;7.57;;;3.90;;
78312;SDS011;67568;47.438;21.408;2023-07-31T04:03:02;7.10;;;3.83;;
78312;SDS011;67568;47.438;21.408;2023-07-31T04:05:32;11.00;;;4.13;;
78312;SDS011;67568;47.438;21.408;2023-07-31T04:07:59;7.78;;;4.20;;
78312;SDS011;67568;47.438;21.408;2023-07-31T04:10:25;8.65;;;4.32;;
78312;SDS011;67568;47.438;21.408;2023-07-31T04:12:52;9.68;;;4.15;;
78312;SDS011;67568;47.438;21.408;2023-07-31T04:15:19;8.80;;;3.60;;
78312;SDS011;67568;47.438;21.408;2023-07-31T04:17:46;8.50;;;4.15;;
78312;SDS011;67568;47.438;21.408;2023-07-31T04:20:12;8.90;;;4.00;;
78312;SDS011;67568;47.438;21.408;2023-07-31T04:22:44;7.95;;;3.90;;
78312;SDS011;67568;47.438;21.408;2023-07-31T04:25:11;8.10;;;3.83;;
78312;SDS011;67568;47.438;21.408;2023-07-31T04:27:38;6.67;;;3.30;;
78312;SDS011;67568;47.438;21.408;2023-07-31T04:30:06;6.78;;;3.38;;
78312;SDS011;67568;47.438;21.408;2023-07-31T04:32:34;7.97;;;3.58;;
78312;SDS011;67568;47.438;21.408;2023-07-31T04:35:02;7.95;;;3.63;;
78312;SDS011;67568;47.438;21.408;2023-07-31T04:37:29;7.15;;;3.30;;
78312;SDS011;67568;47.438;21.408;2023-07-31T04:39:56;6.97;;;3.17;;
78312;SDS011;67568;47.438;21.408;2023-07-31T04:42:23;7.22;;;3.45;;
78312;SDS011;67568;47.438;21.408;2023-07-31T04:44:50;9.13;;;3.33;;
78312;SDS011;67568;47.438;21.408;2023-07-31T04:47:17;6.60;;;3.20;;
78312;SDS011;67568;47.438;21.408;2023-07-31T04:49:44;6.78;;;3.30;;
78312;SDS011;67568;47.438;21.408;2023-07-31T04:52:14;8.10;;;3.47;;
78312;SDS011;67568;47.438;21.408;2023-07-31T04:54:41;6.53;;;3.08;;
78312;SDS011;67568;47.438;21.408;2023-07-31T04:57:08;8.20;;;3.25;;
78312;SDS011;67568;47.438;21.408;2023-07-31T04:59:35;7.10;;;3.20;;
78312;SDS011;67568;47.438;21.408;2023-07-31T05:02:02;8.50;;;3.30;;
78312;SDS011;67568;47.438;21.408;2023-07-31T05:04:29;6.83;;;3.33;;
78312;SDS011;67568;47.438;21.408;2023-07-31T05:06:55;9.43;;;3.92;;
78312;SDS011;67568;47.438;21.408;2023-07-31T05:09:22;8.80;;;3.65;;
78312;SDS011;67568;47.438;21.408;2023-07-31T05:11:49;11.88;;;3.45;;
78312;SDS011;67568;47.438;21.408;2023-07-31T05:14:16;9.25;;;3.42;;
78312;SDS011;67568;47.438;21.408;2023-07-31T05:16:42;9.53;;;3.67;;
78312;SDS011;67568;47.438;21.408;2023-07-31T05:19:10;9.27;;;3.50;;
78312;SDS011;67568;47.438;21.408;2023-07-31T05:21:36;7.50;;;3.72;;
78312;SDS011;67568;47.438;21.408;2023-07-31T05:24:03;11.13;;;3.60;;
78312;SDS011;67568;47.438;21.408;2023-07-31T05:26:31;6.82;;;3.22;;
78312;SDS011;67568;47.438;21.408;2023-07-31T05:28:57;9.40;;;3.60;;
78312;SDS011;67568;47.438;21.408;2023-07-31T05:31:29;7.15;;;3.30;;
78312;SDS011;67568;47.438;21.408;2023-07-31T05:33:56;10.07;;;4.28;;
78312;SDS011;67568;47.438;21.408;2023-07-31T05:36:23;9.18;;;3.92;;
78312;SDS011;67568;47.438;21.408;2023-07-31T05:38:51;7.25;;;3.42;;
78312;SDS011;67568;47.438;21.408;2023-07-31T05:41:17;8.77;;;3.80;;
78312;SDS011;67568;47.438;21.408;2023-07-31T05:43:44;7.82;;;3.45;;
78312;SDS011;67568;47.438;21.408;2023-07-31T05:46:11;10.30;;;3.47;;
78312;SDS011;67568;47.438;21.408;2023-07-31T05:48:38;7.97;;;3.80;;
78312;SDS011;67568;47.438;21.408;2023-07-31T05:51:05;10.50;;;4.03;;
78312;SDS011;67568;47.438;21.408;2023-07-31T05:53:31;9.40;;;3.47;;
78312;SDS011;67568;47.438;21.408;2023-07-31T05:55:58;8.65;;;3.70;;
78312;SDS011;67568;47.438;21.408;2023-07-31T05:58:25;7.20;;;3.55;;
78312;SDS011;67568;47.438;21.408;2023-07-31T06:00:52;12.18;;;4.43;;
78312;SDS011;67568;47.438;21.408;2023-07-31T06:03:18;8.52;;;3.65;;
78312;SDS011;67568;47.438;21.408;2023-07-31T06:05:45;7.90;;;3.73;;
78312;SDS011;67568;47.438;21.408;2023-07-31T06:08:12;9.85;;;4.32;;
78312;SDS011;67568;47.438;21.408;2023-07-31T06:10:39;10.77;;;4.07;;
78312;SDS011;67568;47.438;21.408;2023-07-31T06:13:05;8.82;;;4.10;;
78312;SDS011;67568;47.438;21.408;2023-07-31T06:15:32;8.68;;;3.90;;
78312;SDS011;67568;47.438;21.408;2023-07-31T06:17:59;10.03;;;4.00;;
78312;SDS011;67568;47.438;21.408;2023-07-31T06:20:26;7.60;;;3.90;;
78312;SDS011;67568;47.438;21.408;2023-07-31T06:22:53;7.90;;;3.63;;
78312;SDS011;67568;47.438;21.408;2023-07-31T06:25:20;7.30;;;3.72;;
78312;SDS011;67568;47.438;21.408;2023-07-31T06:27:54;8.75;;;4.15;;
78312;SDS011;67568;47.438;21.408;2023-07-31T06:30:20;7.30;;;3.90;;
78312;SDS011;67568;47.438;21.408;2023-07-31T06:32:47;7.20;;;3.50;;
78312;SDS011;67568;47.438;21.408;2023-07-31T06:35:14;6.47;;;2.80;;
78312;SDS011;67568;47.438;21.408;2023-07-31T06:37:41;8.10;;;3.53;;
78312;SDS011;67568;47.438;21.408;2023-07-31T06:40:08;6.97;;;3.03;;
78312;SDS011;67568;47.438;21.408;2023-07-31T06:42:36;8.63;;;3.33;;
78312;SDS011;67568;47.438;21.408;2023-07-31T06:45:04;6.50;;;3.30;;
78312;SDS011;67568;47.438;21.408;2023-07-31T06:47:31;7.47;;;3.38;;
78312;SDS011;67568;47.438;21.408;2023-07-31T06:49:58;8.35;;;3.58;;
78312;SDS011;67568;47.438;21.408;2023-07-31T06:52:30;9.25;;;3.40;;
78312;SDS011;67568;47.438;21.408;2023-07-31T06:55:02;8.23;;;3.67;;
78312;SDS011;67568;47.438;21.408;2023-07-31T06:57:51;6.80;;;3.30;;
78312;SDS011;67568;47.438;21.408;2023-07-31T07:00:20;8.48;;;3.35;;
78312;SDS011;67568;47.438;21.408;2023-07-31T07:02:49;7.50;;;3.15;;
78312;SDS011;67568;47.438;21.408;2023-07-31T07:05:24;6.60;;;3.13;;
78312;SDS011;67568;47.438;21.408;2023-07-31T07:07:51;6.77;;;3.23;;
78312;SDS011;67568;47.438;21.408;2023-07-31T07:10:18;6.43;;;2.90;;
78312;SDS011;67568;47.438;21.408;2023-07-31T07:12:52;7.63;;;3.50;;
78312;SDS011;67568;47.438;21.408;2023-07-31T07:15:19;6.68;;;3.00;;
78312;SDS011;67568;47.438;21.408;2023-07-31T07:17:47;7.78;;;3.15;;
78312;SDS011;67568;47.438;21.408;2023-07-31T07:20:17;8.00;;;2.97;;
78312;SDS011;67568;47.438;21.408;2023-07-31T07:22:43;6.30;;;3.10;;
78312;SDS011;67568;47.438;21.408;2023-07-31T07:25:11;6.60;;;2.88;;
78312;SDS011;67568;47.438;21.408;2023-07-31T07:27:38;7.13;;;2.90;;
78312;SDS011;67568;47.438;21.408;2023-07-31T07:30:05;6.50;;;3.25;;
78312;SDS011;67568;47.438;21.408;2023-07-31T07:32:32;7.17;;;3.10;;
78312;SDS011;67568;47.438;21.408;2023-07-31T07:35:02;7.07;;;3.38;;
78312;SDS011;67568;47.438;21.408;2023-07-31T07:37:29;8.73;;;3.17;;
78312;SDS011;67568;47.438;21.408;2023-07-31T07:39:59;8.10;;;3.30;;
78312;SDS011;67568;47.438;21.408;2023-07-31T07:42:25;7.00;;;3.20;;
78312;SDS011;67568;47.438;21.408;2023-07-31T07:44:52;6.20;;;3.07;;
78312;SDS011;67568;47.438;21.408;2023-07-31T07:47:25;7.93;;;2.92;;
78312;SDS011;67568;47.438;21.408;2023-07-31T07:50:04;7.53;;;2.88;;
78312;SDS011;67568;47.438;21.408;2023-07-31T07:52:35;8.60;;;3.50;;
78312;SDS011;67568;47.438;21.408;2023-07-31T07:55:07;6.85;;;2.90;;
78312;SDS011;67568;47.438;21.408;2023-07-31T07:57:40;6.33;;;3.23;;
78312;SDS011;67568;47.438;21.408;2023-07-31T08:00:14;6.80;;;2.83;;
78312;SDS011;67568;47.438;21.408;2023-07-31T08:02:41;6.88;;;3.13;;
78312;SDS011;67568;47.438;21.408;2023-07-31T08:05:08;6.63;;;3.05;;
78312;SDS011;67568;47.438;21.408;2023-07-31T08:07:34;6.72;;;2.75;;
78312;SDS011;67568;47.438;21.408;2023-07-31T08:10:15;6.33;;;2.70;;
78312;SDS011;67568;47.438;21.408;2023-07-31T08:12:45;8.30;;;2.92;;
78312;SDS011;67568;47.438;21.408;2023-07-31T08:15:19;5.93;;;2.70;;
78312;SDS011;67568;47.438;21.408;2023-07-31T08:17:48;6.15;;;2.85;;
78312;SDS011;67568;47.438;21.408;2023-07-31T08:20:15;6.20;;;2.83;;
78312;SDS011;67568;47.438;21.408;2023-07-31T08:22:41;6.40;;;2.63;;
78312;SDS011;67568;47.438;21.408;2023-07-31T08:25:08;7.03;;;2.80;;
78312;SDS011;67568;47.438;21.408;2023-07-31T08:27:37;6.10;;;2.95;;
78312;SDS011;67568;47.438;21.408;2023-07-31T08:30:04;5.78;;;2.70;;
78312;SDS011;67568;47.438;21.408;2023-07-31T08:32:32;5.40;;;2.67;;
78312;SDS011;67568;47.438;21.408;2023-07-31T08:35:03;7.40;;;3.10;;
78312;SDS011;67568;47.438;21.408;2023-07-31T08:37:31;7.20;;;2.65;;
78312;SDS011;67568;47.438;21.408;2023-07-31T08:39:58;6.38;;;2.75;;
78312;SDS011;67568;47.438;21.408;2023-07-31T08:42:28;5.80;;;2.70;;
78312;SDS011;67568;47.438;21.408;2023-07-31T08:44:57;7.93;;;2.80;;
78312;SDS011;67568;47.438;21.408;2023-07-31T08:47:26;6.67;;;2.70;;
78312;SDS011;67568;47.438;21.408;2023-07-31T08:49:56;7.40;;;2.80;;
78312;SDS011;67568;47.438;21.408;2023-07-31T08:52:25;6.38;;;2.75;;
78312;SDS011;67568;47.438;21.408;2023-07-31T08:54:55;6.53;;;2.90;;
78312;SDS011;67568;47.438;21.408;2023-07-31T08:57:25;6.13;;;2.80;;
78312;SDS011;67568;47.438;21.408;2023-07-31T08:59:52;7.27;;;2.37;;
78312;SDS011;67568;47.438;21.408;2023-07-31T09:02:19;6.78;;;2.63;;
78312;SDS011;67568;47.438;21.408;2023-07-31T09:04:52;5.00;;;2.38;;
78312;SDS011;67568;47.438;21.408;2023-07-31T09:07:19;7.80;;;2.80;;
78312;SDS011;67568;47.438;21.408;2023-07-31T09:09:47;8.35;;;2.90;;
78312;SDS011;67568;47.438;21.408;2023-07-31T09:12:14;8.03;;;2.90;;
78312;SDS011;67568;47.438;21.408;2023-07-31T09:14:41;5.70;;;2.55;;
78312;SDS011;67568;47.438;21.408;2023-07-31T09:17:13;6.03;;;2.70;;
78312;SDS011;67568;47.438;21.408;2023-07-31T09:19:39;6.28;;;2.55;;
78312;SDS011;67568;47.438;21.408;2023-07-31T09:22:06;5.95;;;2.75;;
78312;SDS011;67568;47.438;21.408;2023-07-31T09:24:33;8.43;;;2.30;;
78312;SDS011;67568;47.438;21.408;2023-07-31T09:27:05;6.88;;;2.58;;
78312;SDS011;67568;47.438;21.408;2023-07-31T09:29:32;6.00;;;2.25;;
78312;SDS011;67568;47.438;21.408;2023-07-31T09:31:59;5.00;;;2.17;;
78312;SDS011;67568;47.438;21.408;2023-07-31T09:34:30;6.10;;;2.33;;
78312;SDS011;67568;47.438;21.408;2023-07-31T09:37:05;6.20;;;2.60;;
78312;SDS011;67568;47.438;21.408;2023-07-31T09:39:55;6.95;;;2.30;;
78312;SDS011;67568;47.438;21.408;2023-07-31T09:42:25;5.90;;;2.35;;
78312;SDS011;67568;47.438;21.408;2023-07-31T09:44:54;4.78;;;2.10;;
78312;SDS011;67568;47.438;21.408;2023-07-31T09:47:33;4.68;;;2.00;;
78312;SDS011;67568;47.438;21.408;2023-07-31T09:50:00;5.70;;;2.33;;
78312;SDS011;67568;47.438;21.408;2023-07-31T09:52:27;5.38;;;1.80;;
78312;SDS011;67568;47.438;21.408;2023-07-31T09:54:56;4.43;;;1.90;;
78312;SDS011;67568;47.438;21.408;2023-07-31T09:57:28;5.93;;;2.17;;
78312;SDS011;67568;47.438;21.408;2023-07-31T09:59:56;4.90;;;2.00;;
78312;SDS011;67568;47.438;21.408;2023-07-31T10:02:23;4.93;;;2.37;;
78312;SDS011;67568;47.438;21.408;2023-07-31T10:04:50;5.30;;;2.17;;
78312;SDS011;67568;47.438;21.408;2023-07-31T10:07:20;6.53;;;2.20;;
78312;SDS011;67568;47.438;21.408;2023-07-31T10:09:51;4.28;;;2.08;;
78312;SDS011;67568;47.438;21.408;2023-07-31T10:12:21;6.88;;;2.58;;
78312;SDS011;67568;47.438;21.408;2023-07-31T10:14:57;5.20;;;2.13;;
78312;SDS011;67568;47.438;21.408;2023-07-31T10:17:29;5.45;;;2.10;;
78312;SDS011;67568;47.438;21.408;2023-07-31T10:20:01;6.50;;;2.28;;
78312;SDS011;67568;47.438;21.408;2023-07-31T10:22:35;4.72;;;2.10;;
78312;SDS011;67568;47.438;21.408;2023-07-31T10:25:07;6.03;;;2.20;;
78312;SDS011;67568;47.438;21.408;2023-07-31T10:27:35;5.23;;;1.93;;
78312;SDS011;67568;47.438;21.408;2023-07-31T10:30:06;5.22;;;2.15;;
78312;SDS011;67568;47.438;21.408;2023-07-31T10:32:44;5.22;;;2.30;;
78312;SDS011;67568;47.438;21.408;2023-07-31T10:35:16;7.95;;;2.00;;
78312;SDS011;67568;47.438;21.408;2023-07-31T10:37:47;4.75;;;2.10;;
78312;SDS011;67568;47.438;21.408;2023-07-31T10:40:18;11.80;;;2.17;;
78312;SDS011;67568;47.438;21.408;2023-07-31T10:42:49;5.70;;;2.35;;
78312;SDS011;67568;47.438;21.408;2023-07-31T10:45:39;7.28;;;2.20;;
78312;SDS011;67568;47.438;21.408;2023-07-31T10:48:14;5.78;;;2.05;;
78312;SDS011;67568;47.438;21.408;2023-07-31T10:50:48;5.18;;;2.03;;
78312;SDS011;67568;47.438;21.408;2023-07-31T10:53:29;7.10;;;1.90;;
78312;SDS011;67568;47.438;21.408;2023-07-31T10:56:02;5.40;;;2.20;;
78312;SDS011;67568;47.438;21.408;2023-07-31T10:58:30;4.47;;;1.90;;
78312;SDS011;67568;47.438;21.408;2023-07-31T11:00:59;5.00;;;2.17;;
78312;SDS011;67568;47.438;21.408;2023-07-31T11:03:42;7.35;;;2.10;;
78312;SDS011;67568;47.438;21.408;2023-07-31T11:06:18;5.23;;;1.83;;
78312;SDS011;67568;47.438;21.408;2023-07-31T11:08:49;4.30;;;1.98;;
78312;SDS011;67568;47.438;21.408;2023-07-31T11:11:17;6.70;;;2.15;;
78312;SDS011;67568;47.438;21.408;2023-07-31T11:13:46;4.93;;;2.17;;
78312;SDS011;67568;47.438;21.408;2023-07-31T11:16:17;4.55;;;1.98;;
78312;SDS011;67568;47.438;21.408;2023-07-31T11:18:46;4.63;;;1.90;;
78312;SDS011;67568;47.438;21.408;2023-07-31T11:21:16;5.28;;;1.92;;
78312;SDS011;67568;47.438;21.408;2023-07-31T11:23:51;4.53;;;1.90;;
78312;SDS011;67568;47.438;21.408;2023-07-31T11:26:22;5.25;;;1.55;;
78312;SDS011;67568;47.438;21.408;2023-07-31T11:28:53;4.03;;;1.50;;
78312;SDS011;67568;47.438;21.408;2023-07-31T11:31:20;4.07;;;1.73;;
78312;SDS011;67568;47.438;21.408;2023-07-31T11:33:47;5.40;;;1.40;;
78312;SDS011;67568;47.438;21.408;2023-07-31T11:36:14;5.07;;;1.75;;
78312;SDS011;67568;47.438;21.408;2023-07-31T11:38:43;3.80;;;1.55;;
78312;SDS011;67568;47.438;21.408;2023-07-31T11:41:09;5.95;;;1.80;;
78312;SDS011;67568;47.438;21.408;2023-07-31T11:43:36;4.40;;;1.70;;
78312;SDS011;67568;47.438;21.408;2023-07-31T11:46:03;3.97;;;1.70;;
78312;SDS011;67568;47.438;21.408;2023-07-31T11:48:31;4.95;;;1.75;;
78312;SDS011;67568;47.438;21.408;2023-07-31T11:51:02;7.32;;;1.67;;
78312;SDS011;67568;47.438;21.408;2023-07-31T11:53:44;6.35;;;1.75;;
78312;SDS011;67568;47.438;21.408;2023-07-31T11:56:21;7.37;;;1.63;;
78312;SDS011;67568;47.438;21.408;2023-07-31T11:58:53;5.78;;;1.65;;
78312;SDS011;67568;47.438;21.408;2023-07-31T12:01:23;4.22;;;1.60;;
78312;SDS011;67568;47.438;21.408;2023-07-31T12:03:53;4.72;;;1.90;;
78312;SDS011;67568;47.438;21.408;2023-07-31T12:06:21;4.70;;;1.98;;
78312;SDS011;67568;47.438;21.408;2023-07-31T12:08:47;4.87;;;1.70;;
78312;SDS011;67568;47.438;21.408;2023-07-31T12:11:16;3.00;;;1.30;;
78312;SDS011;67568;47.438;21.408;2023-07-31T12:13:42;6.07;;;1.67;;
78312;SDS011;67568;47.438;21.408;2023-07-31T12:16:12;4.03;;;2.10;;
78312;SDS011;67568;47.438;21.408;2023-07-31T12:18:41;5.13;;;1.77;;
78312;SDS011;67568;47.438;21.408;2023-07-31T12:21:10;5.07;;;1.47;;
78312;SDS011;67568;47.438;21.408;2023-07-31T12:23:37;5.20;;;1.92;;
78312;SDS011;67568;47.438;21.408;2023-07-31T12:28:44;4.85;;;1.67;;
78312;SDS011;67568;47.438;21.408;2023-07-31T12:31:16;4.07;;;1.85;;
78312;SDS011;67568;47.438;21.408;2023-07-31T12:33:48;4.17;;;1.67;;
78312;SDS011;67568;47.438;21.408;2023-07-31T12:36:25;4.38;;;1.70;;
78312;SDS011;67568;47.438;21.408;2023-07-31T12:38:52;4.88;;;1.70;;
78312;SDS011;67568;47.438;21.408;2023-07-31T12:41:19;4.75;;;1.70;;
78312;SDS011;67568;47.438;21.408;2023-07-31T12:43:46;7.28;;;1.75;;
78312;SDS011;67568;47.438;21.408;2023-07-31T12:46:13;4.50;;;1.47;;
78312;SDS011;67568;47.438;21.408;2023-07-31T12:48:40;4.65;;;1.70;;
78312;SDS011;67568;47.438;21.408;2023-07-31T12:51:07;4.43;;;1.60;;
78312;SDS011;67568;47.438;21.408;2023-07-31T12:53:34;3.38;;;1.60;;
78312;SDS011;67568;47.438;21.408;2023-07-31T12:56:02;4.57;;;1.50;;
78312;SDS011;67568;47.438;21.408;2023-07-31T12:58:29;4.50;;;1.60;;
78312;SDS011;67568;47.438;21.408;2023-07-31T13:00:55;3.45;;;1.40;;
78312;SDS011;67568;47.438;21.408;2023-07-31T13:03:22;5.78;;;1.30;;
78312;SDS011;67568;47.438;21.408;2023-07-31T13:05:50;5.20;;;1.90;;
78312;SDS011;67568;47.438;21.408;2023-07-31T13:08:21;5.03;;;1.83;;
78312;SDS011;67568;47.438;21.408;2023-07-31T13:10:48;3.63;;;1.50;;
78312;SDS011;67568;47.438;21.408;2023-07-31T13:13:16;5.85;;;2.10;;
78312;SDS011;67568;47.438;21.408;2023-07-31T13:15:43;6.13;;;1.75;;
78312;SDS011;67568;47.438;21.408;2023-07-31T13:18:10;4.93;;;1.90;;
78312;SDS011;67568;47.438;21.408;2023-07-31T13:20:37;3.88;;;1.45;;
78312;SDS011;67568;47.438;21.408;2023-07-31T13:23:04;3.67;;;1.60;;
78312;SDS011;67568;47.438;21.408;2023-07-31T13:25:31;4.00;;;1.35;;
78312;SDS011;67568;47.438;21.408;2023-07-31T13:27:57;6.15;;;1.73;;
78312;SDS011;67568;47.438;21.408;2023-07-31T13:30:28;6.45;;;1.70;;
78312;SDS011;67568;47.438;21.408;2023-07-31T13:32:55;3.95;;;1.30;;
78312;SDS011;67568;47.438;21.408;2023-07-31T13:35:22;3.17;;;1.13;;
78312;SDS011;67568;47.438;21.408;2023-07-31T13:37:48;3.58;;;1.10;;
78312;SDS011;67568;47.438;21.408;2023-07-31T13:40:15;4.57;;;1.15;;
78312;SDS011;67568;47.438;21.408;2023-07-31T13:42:42;3.90;;;1.10;;
78312;SDS011;67568;47.438;21.408;2023-07-31T13:45:11;5.97;;;1.00;;
78312;SDS011;67568;47.438;21.408;2023-07-31T13:47:38;2.80;;;0.97;;
78312;SDS011;67568;47.438;21.408;2023-07-31T13:50:05;3.08;;;1.15;;
78312;SDS011;67568;47.438;21.408;2023-07-31T13:52:32;4.53;;;1.40;;
78312;SDS011;67568;47.438;21.408;2023-07-31T13:55:00;2.92;;;1.00;;
78312;SDS011;67568;47.438;21.408;2023-07-31T13:57:27;3.70;;;1.10;;
78312;SDS011;67568;47.438;21.408;2023-07-31T13:59:54;3.70;;;1.17;;
78312;SDS011;67568;47.438;21.408;2023-07-31T14:02:20;4.40;;;1.20;;
78312;SDS011;67568;47.438;21.408;2023-07-31T14:04:50;3.70;;;1.25;;
78312;SDS011;67568;47.438;21.408;2023-07-31T14:07:17;3.13;;;1.10;;
78312;SDS011;67568;47.438;21.408;2023-07-31T14:09:44;2.90;;;1.00;;
78312;SDS011;67568;47.438;21.408;2023-07-31T14:12:10;3.40;;;1.10;;
78312;SDS011;67568;47.438;21.408;2023-07-31T14:14:45;5.18;;;1.15;;
78312;SDS011;67568;47.438;21.408;2023-07-31T14:17:12;5.47;;;1.20;;
78312;SDS011;67568;47.438;21.408;2023-07-31T14:19:39;3.83;;;1.30;;
78312;SDS011;67568;47.438;21.408;2023-07-31T14:22:06;4.32;;;1.25;;
78312;SDS011;67568;47.438;21.408;2023-07-31T14:24:37;2.87;;;1.20;;
78312;SDS011;67568;47.438;21.408;2023-07-31T14:27:04;3.83;;;1.40;;
78312;SDS011;67568;47.438;21.408;2023-07-31T14:29:34;4.25;;;1.40;;
78312;SDS011;67568;47.438;21.408;2023-07-31T14:32:00;4.40;;;1.30;;
78312;SDS011;67568;47.438;21.408;2023-07-31T14:34:27;5.47;;;1.55;;
78312;SDS011;67568;47.438;21.408;2023-07-31T14:36:58;5.67;;;1.70;;
78312;SDS011;67568;47.438;21.408;2023-07-31T14:39:25;2.97;;;1.27;;
78312;SDS011;67568;47.438;21.408;2023-07-31T14:41:51;3.47;;;1.30;;
78312;SDS011;67568;47.438;21.408;2023-07-31T14:44:18;3.83;;;1.45;;
78312;SDS011;67568;47.438;21.408;2023-07-31T14:46:50;4.65;;;1.33;;
78312;SDS011;67568;47.438;21.408;2023-07-31T14:49:17;3.00;;;1.17;;
78312;SDS011;67568;47.438;21.408;2023-07-31T14:51:43;2.78;;;1.23;;
78312;SDS011;67568;47.438;21.408;2023-07-31T14:54:10;3.97;;;1.23;;
78312;SDS011;67568;47.438;21.408;2023-07-31T14:56:37;3.60;;;1.27;;
78312;SDS011;67568;47.438;21.408;2023-07-31T14:59:04;5.13;;;1.52;;